sensor_id;sensor_type;location;lat;lon;timestamp;pressure;altitude;pressure_sealevel;temperature;humidity
16451;BME280;12243;42.708;23.310;2023-01-24T00:01:11;95983.81;;;5.25;100.00
16451;BME280;12243;42.708;23.310;2023-01-24T00:03:38;95979.78;;;5.20;100.00
16451;BME280;12243;42.708;23.310;2023-01-24T00:06:07;95983.97;;;5.22;100.00
16451;BME280;12243;42.708;23.310;2023-01-24T00:08:34;95975.19;;;5.27;100.00
16451;BME280;12243;42.708;23.310;2023-01-24T00:11:03;95984.03;;;5.21;100.00
16451;BME280;12243;42.708;23.310;2023-01-24T00:13:31;95987.19;;;5.28;100.00
16451;BME280;12243;42.708;23.310;2023-01-24T00:16:03;95981.38;;;5.22;100.00
16451;BME280;12243;42.708;23.310;2023-01-24T00:18:30;95989.25;;;5.19;100.00
16451;BME280;12243;42.708;23.310;2023-01-24T00:21:03;95992.75;;;5.18;100.00
16451;BME280;12243;42.708;23.310;2023-01-24T00:23:32;95997.31;;;5.13;100.00
16451;BME280;12243;42.708;23.310;2023-01-24T00:25:59;95998.19;;;5.12;100.00
16451;BME280;12243;42.708;23.310;2023-01-24T00:28:26;95992.19;;;5.12;100.00
16451;BME280;12243;42.708;23.310;2023-01-24T00:30:53;96007.00;;;5.08;100.00
16451;BME280;12243;42.708;23.310;2023-01-24T00:33:20;95995.63;;;5.12;100.00
16451;BME280;12243;42.708;23.310;2023-01-24T00:35:51;96000.59;;;5.17;100.00
16451;BME280;12243;42.708;23.310;2023-01-24T00:38:18;95996.16;;;5.19;100.00
16451;BME280;12243;42.708;23.310;2023-01-24T00:40:49;95996.41;;;5.14;100.00
16451;BME280;12243;42.708;23.310;2023-01-24T00:43:19;96007.91;;;5.07;100.00
16451;BME280;12243;42.708;23.310;2023-01-24T00:45:46;96006.16;;;5.08;100.00
16451;BME280;12243;42.708;23.310;2023-01-24T00:48:14;95998.38;;;5.09;100.00
16451;BME280;12243;42.708;23.310;2023-01-24T00:50:41;96004.41;;;5.08;100.00
16451;BME280;12243;42.708;23.310;2023-01-24T00:53:08;95998.38;;;5.09;100.00
16451;BME280;12243;42.708;23.310;2023-01-24T00:55:40;96005.13;;;5.12;100.00
16451;BME280;12243;42.708;23.310;2023-01-24T00:58:09;96000.03;;;5.10;100.00
16451;BME280;12243;42.708;23.310;2023-01-24T01:00:36;96007.66;;;5.13;100.00
16451;BME280;12243;42.708;23.310;2023-01-24T01:03:06;96008.69;;;5.09;100.00
16451;BME280;12243;42.708;23.310;2023-01-24T01:05:33;96004.97;;;5.15;100.00
16451;BME280;12243;42.708;23.310;2023-01-24T01:08:00;96003.38;;;5.12;100.00
16451;BME280;12243;42.708;23.310;2023-01-24T01:10:27;96001.84;;;5.08;100.00
16451;BME280;12243;42.708;23.310;2023-01-24T01:12:54;96003.81;;;5.03;100.00
16451;BME280;12243;42.708;23.310;2023-01-24T01:15:24;96009.38;;;5.13;100.00
16451;BME280;12243;42.708;23.310;2023-01-24T01:17:51;96004.16;;;5.14;100.00
16451;BME280;12243;42.708;23.310;2023-01-24T01:20:18;95998.38;;;5.09;100.00
16451;BME280;12243;42.708;23.310;2023-01-24T01:22:45;96000.16;;;5.07;100.00
16451;BME280;12243;42.708;23.310;2023-01-24T01:25:12;96005.59;;;5.01;100.00
16451;BME280;12243;42.708;23.310;2023-01-24T01:27:39;96011.81;;;4.97;100.00
16451;BME280;12243;42.708;23.310;2023-01-24T01:30:07;96003.03;;;5.01;100.00
16451;BME280;12243;42.708;23.310;2023-01-24T01:32:35;96007.84;;;4.90;100.00
16451;BME280;12243;42.708;23.310;2023-01-24T01:35:04;96013.28;;;4.84;100.00
16451;BME280;12243;42.708;23.310;2023-01-24T01:37:31;96008.13;;;4.84;100.00
16451;BME280;12243;42.708;23.310;2023-01-24T01:39:58;96007.28;;;4.83;100.00
16451;BME280;12243;42.708;23.310;2023-01-24T01:42:26;96009.28;;;4.76;100.00
16451;BME280;12243;42.708;23.310;2023-01-24T01:44:53;96004.47;;;4.69;100.00
16451;BME280;12243;42.708;23.310;2023-01-24T01:47:25;96006.09;;;4.71;100.00
16451;BME280;12243;42.708;23.310;2023-01-24T01:49:58;95989.56;;;4.75;100.00
16451;BME280;12243;42.708;23.310;2023-01-24T01:52:31;96009.56;;;4.70;100.00
16451;BME280;12243;42.708;23.310;2023-01-24T01:55:03;96002.34;;;4.78;100.00
16451;BME280;12243;42.708;23.310;2023-01-24T01:57:33;96001.41;;;4.80;100.00
16451;BME280;12243;42.708;23.310;2023-01-24T02:00:05;95995.22;;;4.84;100.00
16451;BME280;12243;42.708;23.310;2023-01-24T02:02:38;96001.00;;;4.70;100.00
16451;BME280;12243;42.708;23.310;2023-01-24T02:05:10;95987.38;;;4.66;100.00
16451;BME280;12243;42.708;23.310;2023-01-24T02:07:41;95999.53;;;4.64;100.00
16451;BME280;12243;42.708;23.310;2023-01-24T02:10:11;95998.63;;;4.65;100.00
16451;BME280;12243;42.708;23.310;2023-01-24T02:12:40;95998.75;;;4.62;100.00
16451;BME280;12243;42.708;23.310;2023-01-24T02:15:11;95991.78;;;4.64;100.00
16451;BME280;12243;42.708;23.310;2023-01-24T02:17:56;95995.78;;;4.71;100.00
16451;BME280;12243;42.708;23.310;2023-01-24T02:20:34;95981.59;;;4.61;100.00
16451;BME280;12243;42.708;23.310;2023-01-24T02:23:14;95994.63;;;4.58;100.00
16451;BME280;12243;42.708;23.310;2023-01-24T02:25:46;95983.53;;;4.56;100.00
16451;BME280;12243;42.708;23.310;2023-01-24T02:28:17;95999.00;;;4.56;100.00
16451;BME280;12243;42.708;23.310;2023-01-24T02:30:44;95992.59;;;4.46;100.00
16451;BME280;12243;42.708;23.310;2023-01-24T02:33:14;95999.84;;;4.57;100.00
16451;BME280;12243;42.708;23.310;2023-01-24T02:35:42;95993.25;;;4.51;100.00
16451;BME280;12243;42.708;23.310;2023-01-24T02:38:14;95983.75;;;4.51;100.00
16451;BME280;12243;42.708;23.310;2023-01-24T02:40:43;95999.31;;;4.50;100.00
16451;BME280;12243;42.708;23.310;2023-01-24T02:43:12;95983.06;;;4.48;100.00
16451;BME280;12243;42.708;23.310;2023-01-24T02:45:41;96001.09;;;4.48;100.00
16451;BME280;12243;42.708;23.310;2023-01-24T02:48:09;95995.94;;;4.48;100.00
16451;BME280;12243;42.708;23.310;2023-01-24T02:50:36;95999.00;;;4.56;100.00
16451;BME280;12243;42.708;23.310;2023-01-24T02:53:17;95994.19;;;4.48;100.00
16451;BME280;12243;42.708;23.310;2023-01-24T02:55:58;95991.88;;;4.42;100.00
16451;BME280;12243;42.708;23.310;2023-01-24T02:58:43;96002.91;;;4.46;100.00
16451;BME280;12243;42.708;23.310;2023-01-24T03:01:12;95994.63;;;4.58;100.00
16451;BME280;12243;42.708;23.310;2023-01-24T03:03:43;95998.84;;;4.61;100.00
16451;BME280;12243;42.708;23.310;2023-01-24T03:06:10;95995.69;;;4.54;100.00
16451;BME280;12243;42.708;23.310;2023-01-24T03:08:38;95989.75;;;4.52;100.00
16451;BME280;12243;42.708;23.310;2023-01-24T03:11:13;95993.44;;;4.46;100.00
16451;BME280;12243;42.708;23.310;2023-01-24T03:13:42;95983.66;;;4.34;100.00
16451;BME280;12243;42.708;23.310;2023-01-24T03:16:28;95984.34;;;4.38;100.00
16451;BME280;12243;42.708;23.310;2023-01-24T03:19:12;95986.16;;;4.36;100.00
16451;BME280;12243;42.708;23.310;2023-01-24T03:21:57;95999.94;;;4.35;100.00
16451;BME280;12243;42.708;23.310;2023-01-24T03:24:41;95997.94;;;4.41;100.00
16451;BME280;12243;42.708;23.310;2023-01-24T03:27:25;95987.59;;;4.43;100.00
16451;BME280;12243;42.708;23.310;2023-01-24T03:30:14;95992.09;;;4.38;100.00
16451;BME280;12243;42.708;23.310;2023-01-24T03:33:03;95990.75;;;4.29;100.00
16451;BME280;12243;42.708;23.310;2023-01-24T03:35:49;95992.47;;;4.28;100.00
16451;BME280;12243;42.708;23.310;2023-01-24T03:38:23;95980.16;;;4.35;100.00
16451;BME280;12243;42.708;23.310;2023-01-24T03:41:09;95986.16;;;4.36;100.00
16451;BME280;12243;42.708;23.310;2023-01-24T03:43:37;95982.94;;;4.30;100.00
16451;BME280;12243;42.708;23.310;2023-01-24T03:46:06;95984.91;;;4.25;100.00
16451;BME280;12243;42.708;23.310;2023-01-24T03:48:46;95985.72;;;4.26;100.00
16451;BME280;12243;42.708;23.310;2023-01-24T03:51:13;95978.88;;;4.25;100.00
16451;BME280;12243;42.708;23.310;2023-01-24T03:53:58;95986.91;;;4.19;100.00
16451;BME280;12243;42.708;23.310;2023-01-24T03:56:30;95966.44;;;4.14;100.00
16451;BME280;12243;42.708;23.310;2023-01-24T03:58:59;95985.53;;;4.10;100.00
16451;BME280;12243;42.708;23.310;2023-01-24T04:01:30;95974.41;;;4.10;100.00
16451;BME280;12243;42.708;23.310;2023-01-24T04:04:03;95978.31;;;4.18;100.00
16451;BME280;12243;42.708;23.310;2023-01-24T04:06:30;95975.81;;;4.17;100.00
16451;BME280;12243;42.708;23.310;2023-01-24T04:08:58;95978.97;;;4.23;100.00
16451;BME280;12243;42.708;23.310;2023-01-24T04:11:26;95974.97;;;4.16;100.00
16451;BME280;12243;42.708;23.310;2023-01-24T04:13:58;95969.56;;;4.22;100.00
16451;BME280;12243;42.708;23.310;2023-01-24T04:16:27;95968.53;;;4.26;100.00
16451;BME280;12243;42.708;23.310;2023-01-24T04:19:15;95963.25;;;4.09;100.00
16451;BME280;12243;42.708;23.310;2023-01-24T04:21:42;95972.72;;;4.09;100.00
16451;BME280;12243;42.708;23.310;2023-01-24T04:24:10;95980.63;;;4.04;100.00
16451;BME280;12243;42.708;23.310;2023-01-24T04:26:41;95977.31;;;4.02;100.00
16451;BME280;12243;42.708;23.310;2023-01-24T04:29:14;95973.19;;;3.98;100.00
16451;BME280;12243;42.708;23.310;2023-01-24T04:31:42;95974.59;;;3.85;100.00
16451;BME280;12243;42.708;23.310;2023-01-24T04:34:34;95982.19;;;3.88;100.00
16451;BME280;12243;42.708;23.310;2023-01-24T04:37:02;95973.69;;;3.86;100.00
16451;BME280;12243;42.708;23.310;2023-01-24T04:39:29;95965.13;;;3.85;100.00
16451;BME280;12243;42.708;23.310;2023-01-24T04:42:08;95981.28;;;3.89;100.00
16451;BME280;12243;42.708;23.310;2023-01-24T04:44:37;95977.41;;;3.78;100.00
16451;BME280;12243;42.708;23.310;2023-01-24T04:47:04;95978.56;;;3.71;100.00
16451;BME280;12243;42.708;23.310;2023-01-24T04:49:33;95983.34;;;3.80;100.00
16451;BME280;12243;42.708;23.310;2023-01-24T04:52:02;95991.66;;;3.87;100.00
16451;BME280;12243;42.708;23.310;2023-01-24T04:54:41;95988.50;;;3.80;100.00
16451;BME280;12243;42.708;23.310;2023-01-24T04:57:11;95990.97;;;3.84;100.00
16451;BME280;12243;42.708;23.310;2023-01-24T04:59:40;95990.16;;;3.81;100.00
16451;BME280;12243;42.708;23.310;2023-01-24T05:02:10;95986.69;;;3.82;100.00
16451;BME280;12243;42.708;23.310;2023-01-24T05:04:42;95989.25;;;3.82;100.00
16451;BME280;12243;42.708;23.310;2023-01-24T05:07:11;95992.09;;;3.76;100.00
16451;BME280;12243;42.708;23.310;2023-01-24T05:09:42;95996.88;;;3.86;100.00
16451;BME280;12243;42.708;23.310;2023-01-24T05:12:11;95997.78;;;3.85;100.00
16451;BME280;12243;42.708;23.310;2023-01-24T05:14:38;95995.97;;;3.87;100.00
16451;BME280;12243;42.708;23.310;2023-01-24T05:17:05;96001.91;;;3.89;100.00
16451;BME280;12243;42.708;23.310;2023-01-24T05:19:34;96003.56;;;3.90;100.00
16451;BME280;12243;42.708;23.310;2023-01-24T05:22:03;96007.06;;;3.89;100.00
16451;BME280;12243;42.708;23.310;2023-01-24T05:24:35;96010.78;;;3.81;100.00
16451;BME280;12243;42.708;23.310;2023-01-24T05:27:02;96015.75;;;3.86;100.00
16451;BME280;12243;42.708;23.310;2023-01-24T05:29:31;96022.50;;;3.89;100.00
16451;BME280;12243;42.708;23.310;2023-01-24T05:32:01;96031.91;;;3.90;100.00
16451;BME280;12243;42.708;23.310;2023-01-24T05:34:28;96033.41;;;3.95;100.00
16451;BME280;12243;42.708;23.310;2023-01-24T05:36:56;96039.28;;;3.99;100.00
16451;BME280;12243;42.708;23.310;2023-01-24T05:39:24;96038.06;;;3.87;100.00
16451;BME280;12243;42.708;23.310;2023-01-24T05:41:52;96034.75;;;3.84;100.00
16451;BME280;12243;42.708;23.310;2023-01-24T05:44:21;96035.41;;;3.89;100.00
16451;BME280;12243;42.708;23.310;2023-01-24T05:46:49;96039.41;;;3.96;100.00
16451;BME280;12243;42.708;23.310;2023-01-24T05:49:20;96044.56;;;3.96;100.00
16451;BME280;12243;42.708;23.310;2023-01-24T05:51:48;96050.19;;;4.05;100.00
16451;BME280;12243;42.708;23.310;2023-01-24T05:54:30;96051.13;;;4.03;100.00
16451;BME280;12243;42.708;23.310;2023-01-24T05:57:03;96054.75;;;3.99;100.00
16451;BME280;12243;42.708;23.310;2023-01-24T05:59:50;96046.34;;;3.94;100.00
16451;BME280;12243;42.708;23.310;2023-01-24T06:02:17;96051.50;;;3.94;100.00
16451;BME280;12243;42.708;23.310;2023-01-24T06:04:44;96064.47;;;3.92;100.00
16451;BME280;12243;42.708;23.310;2023-01-24T06:07:14;96059.78;;;4.02;100.00
16451;BME280;12243;42.708;23.310;2023-01-24T06:09:42;96060.84;;;3.96;100.00
16451;BME280;12243;42.708;23.310;2023-01-24T06:12:11;96066.00;;;3.96;100.00
16451;BME280;12243;42.708;23.310;2023-01-24T06:14:38;96077.25;;;3.94;100.00
16451;BME280;12243;42.708;23.310;2023-01-24T06:17:05;96072.13;;;3.94;100.00
16451;BME280;12243;42.708;23.310;2023-01-24T06:19:33;96078.41;;;3.87;100.00
16451;BME280;12243;42.708;23.310;2023-01-24T06:22:06;96067.72;;;3.75;100.00
16451;BME280;12243;42.708;23.310;2023-01-24T06:24:39;96085.53;;;3.80;100.00
16451;BME280;12243;42.708;23.310;2023-01-24T06:27:36;96081.78;;;3.89;100.00
16451;BME280;12243;42.708;23.310;2023-01-24T06:30:05;96080.88;;;3.90;100.00
16451;BME280;12243;42.708;23.310;2023-01-24T06:32:38;96088.00;;;3.83;100.00
16451;BME280;12243;42.708;23.310;2023-01-24T06:35:17;96087.16;;;3.82;100.00
16451;BME280;12243;42.708;23.310;2023-01-24T06:37:48;96099.41;;;3.77;100.00
16451;BME280;12243;42.708;23.310;2023-01-24T06:40:16;96100.56;;;3.70;100.00
16451;BME280;12243;42.708;23.310;2023-01-24T06:42:46;96098.75;;;3.72;100.00
16451;BME280;12243;42.708;23.310;2023-01-24T06:45:13;96100.91;;;3.61;100.00
16451;BME280;12243;42.708;23.310;2023-01-24T06:47:40;96103.53;;;3.60;100.00
16451;BME280;12243;42.708;23.310;2023-01-24T06:50:12;96110.66;;;3.53;100.00
16451;BME280;12243;42.708;23.310;2023-01-24T06:52:40;96117.91;;;3.43;100.00
16451;BME280;12243;42.708;23.310;2023-01-24T06:55:07;96115.03;;;3.51;100.00
16451;BME280;12243;42.708;23.310;2023-01-24T06:57:34;96114.00;;;3.55;100.00
16451;BME280;12243;42.708;23.310;2023-01-24T07:00:03;96110.41;;;3.59;100.00
16451;BME280;12243;42.708;23.310;2023-01-24T07:02:30;96113.47;;;3.47;100.00
16451;BME280;12243;42.708;23.310;2023-01-24T07:04:57;96118.94;;;3.38;100.00
16451;BME280;12243;42.708;23.310;2023-01-24T07:07:24;96114.94;;;3.30;100.00
16451;BME280;12243;42.708;23.310;2023-01-24T07:09:51;96122.22;;;3.19;100.00
16451;BME280;12243;42.708;23.310;2023-01-24T07:12:21;96116.16;;;3.20;100.00
16451;BME280;12243;42.708;23.310;2023-01-24T07:14:48;96123.22;;;3.15;100.00
16451;BME280;12243;42.708;23.310;2023-01-24T07:17:17;96120.88;;;3.09;100.00
16451;BME280;12243;42.708;23.310;2023-01-24T07:19:44;96122.78;;;3.04;100.00
16451;BME280;12243;42.708;23.310;2023-01-24T07:22:12;96128.69;;;3.06;100.00
16451;BME280;12243;42.708;23.310;2023-01-24T07:24:40;96124.13;;;3.14;100.00
16451;BME280;12243;42.708;23.310;2023-01-24T07:27:08;96132.94;;;3.30;100.00
16451;BME280;12243;42.708;23.310;2023-01-24T07:29:35;96128.63;;;3.31;100.00
16451;BME280;12243;42.708;23.310;2023-01-24T07:32:02;96137.38;;;3.27;100.00
16451;BME280;12243;42.708;23.310;2023-01-24T07:34:31;96134.75;;;3.28;100.00
16451;BME280;12243;42.708;23.310;2023-01-24T07:36:58;96138.69;;;3.39;100.00
16451;BME280;12243;42.708;23.310;2023-01-24T07:39:27;96136.75;;;3.20;100.00
16451;BME280;12243;42.708;23.310;2023-01-24T07:41:54;96144.25;;;3.26;100.00
16451;BME280;12243;42.708;23.310;2023-01-24T07:44:21;96150.34;;;3.24;100.00
16451;BME280;12243;42.708;23.310;2023-01-24T07:46:48;96150.22;;;3.28;100.00
16451;BME280;12243;42.708;23.310;2023-01-24T07:49:15;96151.97;;;3.26;100.00
16451;BME280;12243;42.708;23.310;2023-01-24T07:51:44;96151.06;;;3.27;100.00
16451;BME280;12243;42.708;23.310;2023-01-24T07:54:13;96155.69;;;3.19;100.00
16451;BME280;12243;42.708;23.310;2023-01-24T07:56:43;96160.53;;;3.27;100.00
16451;BME280;12243;42.708;23.310;2023-01-24T07:59:09;96163.72;;;3.33;100.00
16451;BME280;12243;42.708;23.310;2023-01-24T08:01:36;96167.84;;;3.39;100.00
16451;BME280;12243;42.708;23.310;2023-01-24T08:04:03;96163.06;;;3.28;100.00
16451;BME280;12243;42.708;23.310;2023-01-24T08:06:30;96173.53;;;3.24;100.00
16451;BME280;12243;42.708;23.310;2023-01-24T08:08:59;96173.88;;;3.15;100.00
16451;BME280;12243;42.708;23.310;2023-01-24T08:11:26;96177.63;;;3.29;100.00
16451;BME280;12243;42.708;23.310;2023-01-24T08:13:52;96170.56;;;3.34;100.00
16451;BME280;12243;42.708;23.310;2023-01-24T08:16:20;96162.06;;;3.32;100.00
16451;BME280;12243;42.708;23.310;2023-01-24T08:18:49;96167.53;;;3.23;100.00
16451;BME280;12243;42.708;23.310;2023-01-24T08:21:16;96167.44;;;3.26;100.00
16451;BME280;12243;42.708;23.310;2023-01-24T08:23:43;96162.91;;;3.33;100.00
16451;BME280;12243;42.708;23.310;2023-01-24T08:26:11;96166.69;;;3.23;100.00
16451;BME280;12243;42.708;23.310;2023-01-24T08:28:38;96171.81;;;3.24;100.00
16451;BME280;12243;42.708;23.310;2023-01-24T08:31:05;96179.53;;;3.24;100.00
16451;BME280;12243;42.708;23.310;2023-01-24T08:33:32;96181.72;;;3.35;100.00
16451;BME280;12243;42.708;23.310;2023-01-24T08:36:04;96174.53;;;3.43;100.00
16451;BME280;12243;42.708;23.310;2023-01-24T08:38:31;96182.31;;;3.42;100.00
16451;BME280;12243;42.708;23.310;2023-01-24T08:40:57;96172.88;;;3.42;100.00
16451;BME280;12243;42.708;23.310;2023-01-24T08:43:26;96185.50;;;3.48;100.00
16451;BME280;12243;42.708;23.310;2023-01-24T08:45:53;96186.50;;;3.44;100.00
16451;BME280;12243;42.708;23.310;2023-01-24T08:48:21;96174.03;;;3.33;100.00
16451;BME280;12243;42.708;23.310;2023-01-24T08:50:47;96180.63;;;3.41;100.00
16451;BME280;12243;42.708;23.310;2023-01-24T08:53:14;96176.56;;;3.35;100.00
16451;BME280;12243;42.708;23.310;2023-01-24T08:55:41;96174.72;;;3.39;100.00
16451;BME280;12243;42.708;23.310;2023-01-24T08:58:08;96173.72;;;3.43;100.00
16451;BME280;12243;42.708;23.310;2023-01-24T09:00:36;96177.72;;;3.50;100.00
16451;BME280;12243;42.708;23.310;2023-01-24T09:03:05;96179.00;;;3.62;100.00
16451;BME280;12243;42.708;23.310;2023-01-24T09:05:32;96159.22;;;3.62;100.00
16451;BME280;12243;42.708;23.310;2023-01-24T09:07:58;96165.97;;;3.66;100.00
16451;BME280;12243;42.708;23.310;2023-01-24T09:10:26;96176.75;;;3.76;100.00
16451;BME280;12243;42.708;23.310;2023-01-24T09:12:53;96174.47;;;3.68;100.00
16451;BME280;12243;42.708;23.310;2023-01-24T09:15:19;96157.34;;;3.67;100.00
16451;BME280;12243;42.708;23.310;2023-01-24T09:17:48;96171.66;;;3.74;100.00
16451;BME280;12243;42.708;23.310;2023-01-24T09:20:15;96172.38;;;3.78;100.00
16451;BME280;12243;42.708;23.310;2023-01-24T09:22:44;96168.69;;;3.85;100.00
16451;BME280;12243;42.708;23.310;2023-01-24T09:25:11;96170.94;;;3.93;100.00
16451;BME280;12243;42.708;23.310;2023-01-24T09:27:39;96172.50;;;3.97;100.00
16451;BME280;12243;42.708;23.310;2023-01-24T09:30:10;96163.94;;;3.96;100.00
16451;BME280;12243;42.708;23.310;2023-01-24T09:32:37;96164.13;;;4.14;100.00
16451;BME280;12243;42.708;23.310;2023-01-24T09:35:07;96168.59;;;4.30;100.00
16451;BME280;12243;42.708;23.310;2023-01-24T09:37:34;96164.47;;;4.26;100.00
16451;BME280;12243;42.708;23.310;2023-01-24T09:40:01;96154.31;;;4.44;100.00
16451;BME280;12243;42.708;23.310;2023-01-24T09:42:33;96165.84;;;4.56;100.00
16451;BME280;12243;42.708;23.310;2023-01-24T09:45:14;96162.31;;;4.58;100.00
16451;BME280;12243;42.708;23.310;2023-01-24T09:47:47;96156.66;;;4.50;100.00
16451;BME280;12243;42.708;23.310;2023-01-24T09:50:19;96152.84;;;4.59;100.00
16451;BME280;12243;42.708;23.310;2023-01-24T09:52:51;96153.41;;;4.65;100.00
16451;BME280;12243;42.708;23.310;2023-01-24T09:55:21;96156.91;;;4.85;100.00
16451;BME280;12243;42.708;23.310;2023-01-24T09:57:55;96156.28;;;4.98;100.00
16451;BME280;12243;42.708;23.310;2023-01-24T10:00:25;96153.56;;;5.22;100.00
16451;BME280;12243;42.708;23.310;2023-01-24T10:02:54;96150.94;;;5.23;100.00
16451;BME280;12243;42.708;23.310;2023-01-24T10:05:28;96144.59;;;5.31;100.00
16451;BME280;12243;42.708;23.310;2023-01-24T10:08:26;96144.50;;;5.32;99.35
16451;BME280;12243;42.708;23.310;2023-01-24T10:11:13;96136.22;;;5.05;99.82
16451;BME280;12243;42.708;23.310;2023-01-24T10:17:01;96135.97;;;5.11;100.00
16451;BME280;12243;42.708;23.310;2023-01-24T10:19:47;96134.81;;;4.98;99.38
16451;BME280;12243;42.708;23.310;2023-01-24T10:22:29;96127.72;;;5.03;100.00
16451;BME280;12243;42.708;23.310;2023-01-24T10:25:03;96136.91;;;4.90;99.69
16451;BME280;12243;42.708;23.310;2023-01-24T10:27:35;96136.53;;;4.58;100.00
16451;BME280;12243;42.708;23.310;2023-01-24T10:30:14;96133.09;;;4.37;99.77
16451;BME280;12243;42.708;23.310;2023-01-24T10:32:43;96120.75;;;4.23;100.00
16451;BME280;12243;42.708;23.310;2023-01-24T10:35:13;96134.91;;;4.13;100.00
16451;BME280;12243;42.708;23.310;2023-01-24T10:37:45;96118.03;;;4.06;100.00
16451;BME280;12243;42.708;23.310;2023-01-24T10:40:16;96134.09;;;4.13;100.00
16451;BME280;12243;42.708;23.310;2023-01-24T10:42:43;96124.38;;;4.19;100.00
16451;BME280;12243;42.708;23.310;2023-01-24T10:45:27;96118.97;;;4.46;100.00
16451;BME280;12243;42.708;23.310;2023-01-24T10:48:01;96118.97;;;4.66;100.00
16451;BME280;12243;42.708;23.310;2023-01-24T10:50:41;96131.72;;;4.90;99.57
16451;BME280;12243;42.708;23.310;2023-01-24T10:53:14;96116.50;;;4.84;99.08
16451;BME280;12243;42.708;23.310;2023-01-24T10:55:41;96127.88;;;4.80;99.40
16451;BME280;12243;42.708;23.310;2023-01-24T10:58:32;96124.13;;;4.87;100.00
16451;BME280;12243;42.708;23.310;2023-01-24T11:01:05;96126.44;;;4.93;98.21
16451;BME280;12243;42.708;23.310;2023-01-24T11:03:38;96117.78;;;4.94;99.08
16451;BME280;12243;42.708;23.310;2023-01-24T11:06:20;96111.66;;;4.96;97.99
16451;BME280;12243;42.708;23.310;2023-01-24T11:08:53;96111.97;;;5.09;98.79
16451;BME280;12243;42.708;23.310;2023-01-24T11:11:23;96114.78;;;5.23;98.03
16451;BME280;12243;42.708;23.310;2023-01-24T11:13:55;96115.78;;;5.19;96.78
16451;BME280;12243;42.708;23.310;2023-01-24T11:16:26;96116.56;;;5.03;96.51
16451;BME280;12243;42.708;23.310;2023-01-24T11:18:56;96108.28;;;4.94;96.93
16451;BME280;12243;42.708;23.310;2023-01-24T11:21:28;96110.06;;;4.73;97.33
16451;BME280;12243;42.708;23.310;2023-01-24T11:24:08;96102.66;;;4.66;97.14
16451;BME280;12243;42.708;23.310;2023-01-24T11:26:51;96091.59;;;4.43;98.29
16451;BME280;12243;42.708;23.310;2023-01-24T11:29:19;96103.44;;;4.47;99.29
16451;BME280;12243;42.708;23.310;2023-01-24T11:31:48;96102.59;;;4.47;99.79
16451;BME280;12243;42.708;23.310;2023-01-24T11:34:33;96098.22;;;4.49;100.00
16451;BME280;12243;42.708;23.310;2023-01-24T11:37:15;96095.75;;;4.46;100.00
16451;BME280;12243;42.708;23.310;2023-01-24T11:39:52;96097.19;;;4.33;100.00
16451;BME280;12243;42.708;23.310;2023-01-24T11:42:31;96094.91;;;4.45;100.00
16451;BME280;12243;42.708;23.310;2023-01-24T11:45:44;96093.81;;;4.30;100.00
16451;BME280;12243;42.708;23.310;2023-01-24T11:48:19;96094.03;;;4.26;99.33
16451;BME280;12243;42.708;23.310;2023-01-24T11:50:57;96094.47;;;4.15;100.00
16451;BME280;12243;42.708;23.310;2023-01-24T11:53:48;96093.44;;;4.19;100.00
16451;BME280;12243;42.708;23.310;2023-01-24T11:56:26;96097.00;;;4.37;99.88
16451;BME280;12243;42.708;23.310;2023-01-24T11:59:22;96098.38;;;4.24;99.53
16451;BME280;12243;42.708;23.310;2023-01-24T12:02:04;96094.59;;;4.33;99.01
16451;BME280;12243;42.708;23.310;2023-01-24T12:07:50;96097.75;;;4.60;98.36
16451;BME280;12243;42.708;23.310;2023-01-24T12:10:25;96104.66;;;4.80;97.13
16451;BME280;12243;42.708;23.310;2023-01-24T12:13:03;96099.75;;;4.73;96.60
16451;BME280;12243;42.708;23.310;2023-01-24T12:15:38;96096.22;;;4.56;96.46
16451;BME280;12243;42.708;23.310;2023-01-24T12:18:32;96103.31;;;4.50;97.59
16451;BME280;12243;42.708;23.310;2023-01-24T12:21:04;96095.25;;;4.58;97.79
16451;BME280;12243;42.708;23.310;2023-01-24T12:23:42;96098.47;;;4.63;97.17
16451;BME280;12243;42.708;23.310;2023-01-24T13:14:27;96093.50;;;4.38;100.00
16451;BME280;12243;42.708;23.310;2023-01-24T13:17:22;96101.06;;;4.43;99.84
16451;BME280;12243;42.708;23.310;2023-01-24T13:20:07;96090.22;;;4.55;100.00
16451;BME280;12243;42.708;23.310;2023-01-24T13:23:06;96096.59;;;4.67;97.81
16451;BME280;12243;42.708;23.310;2023-01-24T13:29:09;96087.06;;;4.88;95.41
16451;BME280;12243;42.708;23.310;2023-01-24T13:31:52;96095.13;;;4.61;94.13
16451;BME280;12243;42.708;23.310;2023-01-24T13:34:29;96100.47;;;4.36;94.99
16451;BME280;12243;42.708;23.310;2023-01-24T13:36:57;96094.59;;;4.33;96.09
16451;BME280;12243;42.708;23.310;2023-01-24T13:39:30;96104.53;;;4.42;95.96
16451;BME280;12243;42.708;23.310;2023-01-24T13:42:04;96098.47;;;4.43;95.59
16451;BME280;12243;42.708;23.310;2023-01-24T13:44:33;96099.25;;;4.45;94.32
16451;BME280;12243;42.708;23.310;2023-01-24T13:47:22;96106.97;;;4.45;94.64
16451;BME280;12243;42.708;23.310;2023-01-24T13:50:14;96105.09;;;4.48;94.54
16451;BME280;12243;42.708;23.310;2023-01-24T13:52:47;96110.84;;;4.55;95.61
16451;BME280;12243;42.708;23.310;2023-01-24T13:58:22;96109.56;;;4.45;93.30
16451;BME280;12243;42.708;23.310;2023-01-24T14:00:51;96110.22;;;4.50;93.79
16451;BME280;12243;42.708;23.310;2023-01-24T14:05:51;96111.69;;;4.56;94.13
16451;BME280;12243;42.708;23.310;2023-01-24T14:08:48;96111.81;;;4.52;91.93
16451;BME280;12243;42.708;23.310;2023-01-24T14:11:35;96116.13;;;4.32;93.00
16451;BME280;12243;42.708;23.310;2023-01-24T14:14:25;96106.38;;;4.18;93.63
16451;BME280;12243;42.708;23.310;2023-01-24T14:17:03;96116.25;;;4.08;94.39
16451;BME280;12243;42.708;23.310;2023-01-24T14:19:35;96108.31;;;4.13;94.30
16451;BME280;12243;42.708;23.310;2023-01-24T14:22:16;96119.56;;;4.10;93.01